sensor_id;sensor_type;location;lat;lon;timestamp;pressure;altitude;pressure_sealevel;temperature;humidity
24104;BME280;12278;53.058;9.028;2022-07-22T00:00:27;101483.38;;;17.85;100.00
24104;BME280;12278;53.058;9.028;2022-07-22T00:04:28;101500.38;;;17.95;100.00
24104;BME280;12278;53.058;9.028;2022-07-22T00:08:29;101497.84;;;17.80;100.00
24104;BME280;12278;53.058;9.028;2022-07-22T00:12:30;101492.47;;;17.78;100.00
24104;BME280;12278;53.058;9.028;2022-07-22T00:16:31;101498.66;;;17.88;100.00
24104;BME280;12278;53.058;9.028;2022-07-22T00:20:33;101497.78;;;17.84;100.00
24104;BME280;12278;53.058;9.028;2022-07-22T00:24:33;101498.59;;;17.92;100.00
24104;BME280;12278;53.058;9.028;2022-07-22T00:28:34;101493.47;;;17.71;100.00
24104;BME280;12278;53.058;9.028;2022-07-22T00:32:35;101481.97;;;17.51;100.00
24104;BME280;12278;53.058;9.028;2022-07-22T00:36:36;101489.91;;;17.70;100.00
24104;BME280;12278;53.058;9.028;2022-07-22T00:40:37;101502.44;;;17.73;100.00
24104;BME280;12278;53.058;9.028;2022-07-22T00:44:38;101505.28;;;17.58;100.00
24104;BME280;12278;53.058;9.028;2022-07-22T00:48:39;101515.97;;;17.68;100.00
24104;BME280;12278;53.058;9.028;2022-07-22T00:52:44;101509.72;;;17.62;100.00
24104;BME280;12278;53.058;9.028;2022-07-22T00:56:45;101515.13;;;17.62;100.00
24104;BME280;12278;53.058;9.028;2022-07-22T01:00:47;101521.31;;;17.73;100.00
24104;BME280;12278;53.058;9.028;2022-07-22T01:04:47;101528.69;;;17.54;100.00
24104;BME280;12278;53.058;9.028;2022-07-22T01:08:49;101528.69;;;17.53;100.00
24104;BME280;12278;53.058;9.028;2022-07-22T01:12:50;101521.75;;;17.29;100.00
24104;BME280;12278;53.058;9.028;2022-07-22T01:16:51;101529.72;;;17.42;100.00
24104;BME280;12278;53.058;9.028;2022-07-22T01:20:52;101517.38;;;17.20;100.00
24104;BME280;12278;53.058;9.028;2022-07-22T01:24:53;101528.97;;;17.27;100.00
24104;BME280;12278;53.058;9.028;2022-07-22T01:28:54;101530.69;;;17.37;100.00
24104;BME280;12278;53.058;9.028;2022-07-22T01:32:56;101528.13;;;17.22;100.00
24104;BME280;12278;53.058;9.028;2022-07-22T01:36:57;101529.06;;;17.14;100.00
24104;BME280;12278;53.058;9.028;2022-07-22T01:40:58;101531.00;;;17.03;100.00
24104;BME280;12278;53.058;9.028;2022-07-22T01:44:58;101527.56;;;16.81;100.00
24104;BME280;12278;53.058;9.028;2022-07-22T01:49:00;101536.53;;;16.86;100.00
24104;BME280;12278;53.058;9.028;2022-07-22T01:53:01;101533.94;;;16.73;100.00
24104;BME280;12278;53.058;9.028;2022-07-22T01:57:03;101544.63;;;16.80;100.00
24104;BME280;12278;53.058;9.028;2022-07-22T02:01:04;101548.16;;;16.90;100.00
24104;BME280;12278;53.058;9.028;2022-07-22T02:05:06;101546.25;;;17.04;100.00
24104;BME280;12278;53.058;9.028;2022-07-22T02:09:07;101550.63;;;17.19;100.00
24104;BME280;12278;53.058;9.028;2022-07-22T02:13:08;101548.16;;;16.90;100.00
24104;BME280;12278;53.058;9.028;2022-07-22T02:17:09;101552.50;;;17.09;100.00
24104;BME280;12278;53.058;9.028;2022-07-22T02:21:11;101546.28;;;16.97;100.00
24104;BME280;12278;53.058;9.028;2022-07-22T02:25:12;101548.91;;;17.07;100.00
24104;BME280;12278;53.058;9.028;2022-07-22T02:29:14;101546.16;;;17.12;100.00
24104;BME280;12278;53.058;9.028;2022-07-22T02:33:15;101549.88;;;16.99;100.00
24104;BME280;12278;53.058;9.028;2022-07-22T02:37:15;101556.03;;;17.13;100.00
24104;BME280;12278;53.058;9.028;2022-07-22T02:41:16;101548.97;;;17.03;100.00
24104;BME280;12278;53.058;9.028;2022-07-22T02:45:19;101547.28;;;16.88;100.00
24104;BME280;12278;53.058;9.028;2022-07-22T02:49:20;101549.94;;;16.91;100.00
24104;BME280;12278;53.058;9.028;2022-07-22T02:53:21;101560.00;;;16.68;100.00
24104;BME280;12278;53.058;9.028;2022-07-22T02:57:22;101553.72;;;16.69;100.00
24104;BME280;12278;53.058;9.028;2022-07-22T03:01:22;101564.47;;;16.64;100.00
24104;BME280;12278;53.058;9.028;2022-07-22T03:05:23;101566.25;;;16.64;100.00
24104;BME280;12278;53.058;9.028;2022-07-22T03:09:24;101561.78;;;16.61;100.00
24104;BME280;12278;53.058;9.028;2022-07-22T03:13:25;101570.75;;;16.65;100.00
24104;BME280;12278;53.058;9.028;2022-07-22T03:17:26;101561.88;;;16.50;100.00
24104;BME280;12278;53.058;9.028;2022-07-22T03:21:27;101571.69;;;16.56;100.00
24104;BME280;12278;53.058;9.028;2022-07-22T03:25:28;101569.94;;;16.50;100.00
24104;BME280;12278;53.058;9.028;2022-07-22T03:29:31;101574.44;;;16.48;100.00
24104;BME280;12278;53.058;9.028;2022-07-22T03:33:31;101573.66;;;16.33;100.00
24104;BME280;12278;53.058;9.028;2022-07-22T03:37:33;101579.00;;;16.37;100.00
24104;BME280;12278;53.058;9.028;2022-07-22T03:41:34;101578.03;;;16.47;100.00
24104;BME280;12278;53.058;9.028;2022-07-22T03:45:35;101590.59;;;16.51;100.00
24104;BME280;12278;53.058;9.028;2022-07-22T03:49:36;101587.91;;;16.44;100.00
24104;BME280;12278;53.058;9.028;2022-07-22T03:53:37;101588.81;;;16.49;100.00
24104;BME280;12278;53.058;9.028;2022-07-22T03:57:38;101593.28;;;16.45;100.00
24104;BME280;12278;53.058;9.028;2022-07-22T04:01:39;101596.03;;;16.41;100.00
24104;BME280;12278;53.058;9.028;2022-07-22T04:05:39;101592.41;;;16.45;100.00
24104;BME280;12278;53.058;9.028;2022-07-22T04:09:40;101601.34;;;16.53;100.00
24104;BME280;12278;53.058;9.028;2022-07-22T04:13:41;101586.88;;;16.65;100.00
24104;BME280;12278;53.058;9.028;2022-07-22T04:17:42;101594.97;;;16.63;100.00
24104;BME280;12278;53.058;9.028;2022-07-22T04:21:43;101593.25;;;16.54;100.00
24104;BME280;12278;53.058;9.028;2022-07-22T04:25:44;101601.31;;;16.56;100.00
24104;BME280;12278;53.058;9.028;2022-07-22T04:29:46;101603.06;;;16.62;100.00
24104;BME280;12278;53.058;9.028;2022-07-22T04:33:47;101597.69;;;16.60;100.00
24104;BME280;12278;53.058;9.028;2022-07-22T04:37:48;101608.47;;;16.66;100.00
24104;BME280;12278;53.058;9.028;2022-07-22T04:41:49;101612.88;;;16.78;100.00
24104;BME280;12278;53.058;9.028;2022-07-22T04:45:50;101612.03;;;16.71;100.00
24104;BME280;12278;53.058;9.028;2022-07-22T04:49:51;101609.38;;;16.68;100.00
24104;BME280;12278;53.058;9.028;2022-07-22T04:53:55;101601.28;;;16.68;100.00
24104;BME280;12278;53.058;9.028;2022-07-22T04:57:58;101613.84;;;16.66;100.00
24104;BME280;12278;53.058;9.028;2022-07-22T05:01:59;101615.56;;;16.84;100.00
24104;BME280;12278;53.058;9.028;2022-07-22T05:06:00;101623.69;;;16.73;99.98
24104;BME280;12278;53.058;9.028;2022-07-22T05:10:01;101620.97;;;16.76;99.95
24104;BME280;12278;53.058;9.028;2022-07-22T05:14:01;101629.00;;;16.87;97.71
24104;BME280;12278;53.058;9.028;2022-07-22T05:18:03;101620.06;;;16.77;97.82
24104;BME280;12278;53.058;9.028;2022-07-22T05:22:04;101621.78;;;16.92;98.89
24104;BME280;12278;53.058;9.028;2022-07-22T05:26:05;101619.03;;;16.98;96.34
24104;BME280;12278;53.058;9.028;2022-07-22T05:30:08;101621.78;;;16.91;97.33
24104;BME280;12278;53.058;9.028;2022-07-22T05:34:09;101620.09;;;16.74;97.93
24104;BME280;12278;53.058;9.028;2022-07-22T05:38:10;101624.50;;;16.87;96.94
24104;BME280;12278;53.058;9.028;2022-07-22T05:42:10;101632.47;;;17.06;95.13
24104;BME280;12278;53.058;9.028;2022-07-22T05:46:11;101624.41;;;16.98;94.07
24104;BME280;12278;53.058;9.028;2022-07-22T05:50:12;101630.56;;;17.15;94.41
24104;BME280;12278;53.058;9.028;2022-07-22T05:54:13;101628.81;;;17.10;92.39
24104;BME280;12278;53.058;9.028;2022-07-22T05:58:14;101632.44;;;17.09;91.92
24104;BME280;12278;53.058;9.028;2022-07-22T06:02:15;101624.25;;;17.21;91.90
24104;BME280;12278;53.058;9.028;2022-07-22T06:06:16;101630.53;;;17.23;90.67
24104;BME280;12278;53.058;9.028;2022-07-22T06:10:17;101626.00;;;17.28;90.13
24104;BME280;12278;53.058;9.028;2022-07-22T06:14:18;101619.72;;;17.26;89.14
24104;BME280;12278;53.058;9.028;2022-07-22T06:18:19;101622.41;;;17.26;89.22
24104;BME280;12278;53.058;9.028;2022-07-22T06:22:19;101633.97;;;17.42;89.77
24104;BME280;12278;53.058;9.028;2022-07-22T06:26:20;101626.94;;;17.23;88.72
24104;BME280;12278;53.058;9.028;2022-07-22T06:30:21;101638.53;;;17.31;88.68
24104;BME280;12278;53.058;9.028;2022-07-22T06:34:22;101637.47;;;17.50;86.95
24104;BME280;12278;53.058;9.028;2022-07-22T06:38:23;101636.59;;;17.46;87.67
24104;BME280;12278;53.058;9.028;2022-07-22T06:42:24;101641.22;;;17.34;88.14
24104;BME280;12278;53.058;9.028;2022-07-22T06:46:25;101648.41;;;17.32;88.34
24104;BME280;12278;53.058;9.028;2022-07-22T06:50:26;101644.53;;;17.63;86.86
24104;BME280;12278;53.058;9.028;2022-07-22T06:54:27;101644.59;;;17.60;87.35
24104;BME280;12278;53.058;9.028;2022-07-22T06:58:28;101642.66;;;17.77;84.93
24104;BME280;12278;53.058;9.028;2022-07-22T07:02:29;101644.53;;;17.71;85.08
24104;BME280;12278;53.058;9.028;2022-07-22T07:06:30;101656.13;;;17.77;83.71
24104;BME280;12278;53.058;9.028;2022-07-22T07:10:31;101647.28;;;17.60;82.88
24104;BME280;12278;53.058;9.028;2022-07-22T07:14:32;101647.19;;;17.74;81.91
24104;BME280;12278;53.058;9.028;2022-07-22T07:18:33;101649.84;;;17.78;82.14
24104;BME280;12278;53.058;9.028;2022-07-22T07:22:34;101648.16;;;17.62;80.13
24104;BME280;12278;53.058;9.028;2022-07-22T07:26:35;101642.91;;;17.45;79.20
24104;BME280;12278;53.058;9.028;2022-07-22T07:30:36;101655.16;;;17.85;79.87
24104;BME280;12278;53.058;9.028;2022-07-22T07:34:36;101653.06;;;18.13;77.23
24104;BME280;12278;53.058;9.028;2022-07-22T07:38:37;101654.63;;;18.32;76.40
24104;BME280;12278;53.058;9.028;2022-07-22T07:42:38;101661.72;;;18.42;76.43
24104;BME280;12278;53.058;9.028;2022-07-22T07:46:39;101657.91;;;18.58;73.16
24104;BME280;12278;53.058;9.028;2022-07-22T07:50:40;101663.34;;;18.54;74.33
24104;BME280;12278;53.058;9.028;2022-07-22T07:54:41;101652.63;;;18.48;73.51
24104;BME280;12278;53.058;9.028;2022-07-22T07:58:42;101662.53;;;18.49;74.26
24104;BME280;12278;53.058;9.028;2022-07-22T08:02:43;101653.47;;;18.51;73.21
24104;BME280;12278;53.058;9.028;2022-07-22T08:06:44;101665.13;;;18.56;72.93
24104;BME280;12278;53.058;9.028;2022-07-22T08:10:45;101670.34;;;18.75;72.94
24104;BME280;12278;53.058;9.028;2022-07-22T08:14:46;101668.81;;;18.49;71.59
24104;BME280;12278;53.058;9.028;2022-07-22T08:18:47;101674.34;;;18.37;71.67
24104;BME280;12278;53.058;9.028;2022-07-22T08:22:49;101671.53;;;18.48;71.29
24104;BME280;12278;53.058;9.028;2022-07-22T08:26:50;101672.41;;;18.50;70.93
24104;BME280;12278;53.058;9.028;2022-07-22T08:30:54;101684.78;;;18.69;71.47
24104;BME280;12278;53.058;9.028;2022-07-22T08:34:55;101679.09;;;18.90;70.41
24104;BME280;12278;53.058;9.028;2022-07-22T08:38:56;101681.53;;;19.10;69.50
24104;BME280;12278;53.058;9.028;2022-07-22T08:42:58;101684.69;;;19.38;67.89
24104;BME280;12278;53.058;9.028;2022-07-22T08:47:03;101681.69;;;19.58;66.72
24104;BME280;12278;53.058;9.028;2022-07-22T08:51:04;101693.59;;;19.99;66.06
24104;BME280;12278;53.058;9.028;2022-07-22T08:55:07;101677.16;;;19.58;65.48
24104;BME280;12278;53.058;9.028;2022-07-22T08:59:08;101675.16;;;19.70;65.35
24104;BME280;12278;53.058;9.028;2022-07-22T09:03:22;101679.97;;;19.51;65.90
24104;BME280;12278;53.058;9.028;2022-07-22T09:11:30;101689.38;;;20.29;66.47
24104;BME280;12278;53.058;9.028;2022-07-22T09:15:45;101689.88;;;20.52;66.99
24104;BME280;12278;53.058;9.028;2022-07-22T09:19:46;101684.44;;;20.52;65.90
24104;BME280;12278;53.058;9.028;2022-07-22T09:23:47;101690.59;;;20.14;66.02
24104;BME280;12278;53.058;9.028;2022-07-22T09:27:50;101694.16;;;20.17;65.33
24104;BME280;12278;53.058;9.028;2022-07-22T09:31:52;101692.28;;;20.20;66.30
24104;BME280;12278;53.058;9.028;2022-07-22T09:36:03;101694.06;;;20.21;67.88
24104;BME280;12278;53.058;9.028;2022-07-22T09:40:23;101693.88;;;20.30;66.71
24104;BME280;12278;53.058;9.028;2022-07-22T09:44:24;101693.41;;;20.08;66.26
24104;BME280;12278;53.058;9.028;2022-07-22T09:48:25;101699.69;;;20.10;66.00
24104;BME280;12278;53.058;9.028;2022-07-22T09:52:26;101694.06;;;20.21;66.82
24104;BME280;12278;53.058;9.028;2022-07-22T09:56:28;101696.13;;;20.08;64.95
24104;BME280;12278;53.058;9.028;2022-07-22T10:00:31;101691.56;;;20.10;65.15
24104;BME280;12278;53.058;9.028;2022-07-22T10:04:34;101685.88;;;19.76;66.87
24104;BME280;12278;53.058;9.028;2022-07-22T10:08:37;101692.59;;;19.50;67.41
24104;BME280;12278;53.058;9.028;2022-07-22T10:12:39;101697.44;;;19.85;68.92
24104;BME280;12278;53.058;9.028;2022-07-22T10:16:43;101708.63;;;20.15;66.72
24104;BME280;12278;53.058;9.028;2022-07-22T10:20:44;101694.91;;;19.75;67.42
24104;BME280;12278;53.058;9.028;2022-07-22T10:24:59;101680.91;;;19.50;67.75
24104;BME280;12278;53.058;9.028;2022-07-22T10:29:38;101697.22;;;19.44;68.46
24104;BME280;12278;53.058;9.028;2022-07-22T10:33:40;101691.78;;;19.47;68.83
24104;BME280;12278;53.058;9.028;2022-07-22T10:37:41;101701.88;;;19.90;68.54
24104;BME280;12278;53.058;9.028;2022-07-22T10:41:45;101699.91;;;19.99;65.60
24104;BME280;12278;53.058;9.028;2022-07-22T10:45:58;101689.56;;;20.21;65.40
24104;BME280;12278;53.058;9.028;2022-07-22T10:55:31;101697.44;;;20.78;63.37
24104;BME280;12278;53.058;9.028;2022-07-22T10:59:32;101705.06;;;20.99;63.06
24104;BME280;12278;53.058;9.028;2022-07-22T11:03:37;101684.41;;;20.54;62.40
24104;BME280;12278;53.058;9.028;2022-07-22T11:07:46;101697.03;;;20.55;64.17
24104;BME280;12278;53.058;9.028;2022-07-22T11:11:53;101688.84;;;20.58;62.25
24104;BME280;12278;53.058;9.028;2022-07-22T11:15:54;101686.28;;;20.52;64.75
24104;BME280;12278;53.058;9.028;2022-07-22T11:19:56;101681.81;;;20.47;64.32
24104;BME280;12278;53.058;9.028;2022-07-22T11:24:00;101688.31;;;20.37;66.94
24104;BME280;12278;53.058;9.028;2022-07-22T11:28:06;101693.53;;;20.50;65.87
24104;BME280;12278;53.058;9.028;2022-07-22T11:32:09;101686.19;;;20.55;65.62
24104;BME280;12278;53.058;9.028;2022-07-22T11:36:11;101687.72;;;20.68;65.88
24104;BME280;12278;53.058;9.028;2022-07-22T11:40:12;101667.34;;;20.50;64.47
24104;BME280;12278;53.058;9.028;2022-07-22T11:44:19;101666.41;;;20.51;63.92
24104;BME280;12278;53.058;9.028;2022-07-22T11:48:20;101673.34;;;20.64;63.13
24104;BME280;12278;53.058;9.028;2022-07-22T11:52:21;101672.03;;;20.84;63.66
24104;BME280;12278;53.058;9.028;2022-07-22T11:56:22;101666.56;;;20.85;63.24
24104;BME280;12278;53.058;9.028;2022-07-22T12:00:23;101664.50;;;20.96;63.17
24104;BME280;12278;53.058;9.028;2022-07-22T12:04:26;101665.94;;;21.11;61.90
24104;BME280;12278;53.058;9.028;2022-07-22T12:08:28;101669.78;;;21.41;63.05
24104;BME280;12278;53.058;9.028;2022-07-22T12:12:41;101670.13;;;21.63;61.52
24104;BME280;12278;53.058;9.028;2022-07-22T12:16:44;101668.84;;;21.78;62.15
24104;BME280;12278;53.058;9.028;2022-07-22T12:20:55;101662.66;;;20.97;64.47
24104;BME280;12278;53.058;9.028;2022-07-22T12:25:01;101668.53;;;21.16;66.06
24104;BME280;12278;53.058;9.028;2022-07-22T12:29:28;101659.97;;;20.97;65.88
24104;BME280;12278;53.058;9.028;2022-07-22T12:33:30;101660.19;;;20.88;65.92
24104;BME280;12278;53.058;9.028;2022-07-22T12:37:44;101663.09;;;20.78;66.51
24104;BME280;12278;53.058;9.028;2022-07-22T12:41:52;101663.75;;;20.50;67.25
24104;BME280;12278;53.058;9.028;2022-07-22T12:45:54;101649.56;;;20.35;67.82
24104;BME280;12278;53.058;9.028;2022-07-22T12:50:31;101638.28;;;20.13;67.96
24104;BME280;12278;53.058;9.028;2022-07-22T12:54:34;101657.72;;;20.34;68.61
24104;BME280;12278;53.058;9.028;2022-07-22T12:58:35;101659.25;;;20.47;68.07
24104;BME280;12278;53.058;9.028;2022-07-22T13:02:38;101663.69;;;20.51;67.61
24104;BME280;12278;53.058;9.028;2022-07-22T13:06:39;101652.16;;;20.40;67.46
24104;BME280;12278;53.058;9.028;2022-07-22T13:10:40;101653.06;;;20.40;69.03
24104;BME280;12278;53.058;9.028;2022-07-22T13:14:41;101639.72;;;20.31;67.73
24104;BME280;12278;53.058;9.028;2022-07-22T13:18:41;101652.34;;;20.32;68.95
24104;BME280;12278;53.058;9.028;2022-07-22T13:22:44;101648.75;;;20.29;66.91
24104;BME280;12278;53.058;9.028;2022-07-22T13:26:45;101647.97;;;20.24;67.82
24104;BME280;12278;53.058;9.028;2022-07-22T13:30:46;101643.78;;;20.54;68.46
24104;BME280;12278;53.058;9.028;2022-07-22T13:34:47;101645.69;;;20.89;66.67
24104;BME280;12278;53.058;9.028;2022-07-22T13:38:49;101645.88;;;21.20;65.03
24104;BME280;12278;53.058;9.028;2022-07-22T13:42:53;101643.34;;;21.12;65.52
24104;BME280;12278;53.058;9.028;2022-07-22T13:46:57;101634.59;;;21.01;62.53
24104;BME280;12278;53.058;9.028;2022-07-22T13:50:58;101639.47;;;21.59;64.17
24104;BME280;12278;53.058;9.028;2022-07-22T13:54:59;101630.44;;;21.59;63.13
24104;BME280;12278;53.058;9.028;2022-07-22T13:59:00;101627.22;;;21.06;63.56
24104;BME280;12278;53.058;9.028;2022-07-22T14:03:01;101618.44;;;20.95;63.79
24104;BME280;12278;53.058;9.028;2022-07-22T14:07:02;101617.28;;;20.68;65.41
24104;BME280;12278;53.058;9.028;2022-07-22T14:11:04;101625.44;;;20.65;66.05
24104;BME280;12278;53.058;9.028;2022-07-22T14:15:07;101642.13;;;20.87;66.19
24104;BME280;12278;53.058;9.028;2022-07-22T14:19:15;101632.22;;;20.86;66.29
24104;BME280;12278;53.058;9.028;2022-07-22T14:23:16;101634.66;;;20.96;67.26
24104;BME280;12278;53.058;9.028;2022-07-22T14:27:21;101631.19;;;20.91;66.55
24104;BME280;12278;53.058;9.028;2022-07-22T14:31:23;101633.31;;;20.77;67.18
24104;BME280;12278;53.058;9.028;2022-07-22T14:35:25;101629.56;;;20.84;66.37
24104;BME280;12278;53.058;9.028;2022-07-22T14:39:26;101626.00;;;20.81;66.69
24104;BME280;12278;53.058;9.028;2022-07-22T14:43:28;101616.97;;;20.80;66.67
24104;BME280;12278;53.058;9.028;2022-07-22T14:47:29;101621.06;;;20.59;66.93
24104;BME280;12278;53.058;9.028;2022-07-22T14:51:30;101625.41;;;20.23;65.76
24104;BME280;12278;53.058;9.028;2022-07-22T14:55:31;101617.94;;;20.36;67.86
24104;BME280;12278;53.058;9.028;2022-07-22T14:59:31;101606.34;;;20.28;66.98
24104;BME280;12278;53.058;9.028;2022-07-22T15:03:32;101608.56;;;20.54;67.94
24104;BME280;12278;53.058;9.028;2022-07-22T15:07:33;101615.53;;;20.65;66.22
24104;BME280;12278;53.058;9.028;2022-07-22T15:11:34;101625.19;;;20.77;67.15
24104;BME280;12278;53.058;9.028;2022-07-22T15:15:35;101610.41;;;20.52;68.20
24104;BME280;12278;53.058;9.028;2022-07-22T15:19:36;101609.78;;;20.37;67.76
24104;BME280;12278;53.058;9.028;2022-07-22T15:23:38;101608.63;;;20.06;67.40
24104;BME280;12278;53.058;9.028;2022-07-22T15:27:39;101606.44;;;20.25;68.66
24104;BME280;12278;53.058;9.028;2022-07-22T15:31:41;101591.19;;;20.21;67.15
24104;BME280;12278;53.058;9.028;2022-07-22T15:35:42;101581.69;;;20.00;66.97
24104;BME280;12278;53.058;9.028;2022-07-22T15:39:43;101582.00;;;19.84;68.28
24104;BME280;12278;53.058;9.028;2022-07-22T15:43:43;101587.16;;;19.95;67.61
24104;BME280;12278;53.058;9.028;2022-07-22T15:47:44;101584.91;;;19.74;69.55
24104;BME280;12278;53.058;9.028;2022-07-22T15:51:45;101582.25;;;19.71;68.79
24104;BME280;12278;53.058;9.028;2022-07-22T15:55:46;101591.75;;;19.92;67.78
24104;BME280;12278;53.058;9.028;2022-07-22T15:59:47;101586.28;;;19.96;67.63
24104;BME280;12278;53.058;9.028;2022-07-22T16:03:49;101587.16;;;19.97;68.30
24104;BME280;12278;53.058;9.028;2022-07-22T16:07:50;101584.19;;;20.09;67.85
24104;BME280;12278;53.058;9.028;2022-07-22T16:11:50;101585.19;;;20.05;69.55
24104;BME280;12278;53.058;9.028;2022-07-22T16:15:51;101592.38;;;20.06;71.11
24104;BME280;12278;53.058;9.028;2022-07-22T16:19:52;101589.16;;;19.87;71.22
24104;BME280;12278;53.058;9.028;2022-07-22T16:23:53;101590.00;;;19.89;71.41
24104;BME280;12278;53.058;9.028;2022-07-22T16:27:54;101588.41;;;19.80;72.54
24104;BME280;12278;53.058;9.028;2022-07-22T16:31:55;101584.34;;;19.55;72.48
24104;BME280;12278;53.058;9.028;2022-07-22T16:35:56;101576.38;;;19.46;73.93
24104;BME280;12278;53.058;9.028;2022-07-22T16:39:57;101578.84;;;19.60;74.41
24104;BME280;12278;53.058;9.028;2022-07-22T16:44:00;101575.34;;;19.54;73.90
24104;BME280;12278;53.058;9.028;2022-07-22T16:48:01;101567.44;;;19.41;73.42
24104;BME280;12278;53.058;9.028;2022-07-22T16:52:03;101563.81;;;19.42;74.30
24104;BME280;12278;53.058;9.028;2022-07-22T16:56:04;101558.63;;;19.31;74.20
24104;BME280;12278;53.058;9.028;2022-07-22T17:00:06;101564.13;;;19.25;75.46
24104;BME280;12278;53.058;9.028;2022-07-22T17:04:08;101559.53;;;19.30;75.25
24104;BME280;12278;53.058;9.028;2022-07-22T17:08:09;101574.72;;;19.37;75.80
24104;BME280;12278;53.058;9.028;2022-07-22T17:12:10;101570.00;;;19.50;74.37
24104;BME280;12278;53.058;9.028;2022-07-22T17:16:11;101574.44;;;19.52;74.46
24104;BME280;12278;53.058;9.028;2022-07-22T17:20:12;101576.09;;;19.63;73.88
24104;BME280;12278;53.058;9.028;2022-07-22T17:24:14;101563.56;;;19.57;72.17
24104;BME280;12278;53.058;9.028;2022-07-22T17:28:15;101569.81;;;19.61;72.88
24104;BME280;12278;53.058;9.028;2022-07-22T17:32:15;101565.66;;;19.40;73.55
24104;BME280;12278;53.058;9.028;2022-07-22T17:36:16;101565.63;;;19.41;73.87
24104;BME280;12278;53.058;9.028;2022-07-22T17:40:17;101556.63;;;19.41;73.71
24104;BME280;12278;53.058;9.028;2022-07-22T17:44:18;101555.88;;;19.33;74.37
24104;BME280;12278;53.058;9.028;2022-07-22T17:48:19;101551.41;;;19.32;74.75
24104;BME280;12278;53.058;9.028;2022-07-22T17:52:20;101553.47;;;19.16;75.63
24104;BME280;12278;53.058;9.028;2022-07-22T17:56:21;101542.84;;;19.05;76.22
24104;BME280;12278;53.058;9.028;2022-07-22T18:00:23;101547.28;;;19.09;76.56
24104;BME280;12278;53.058;9.028;2022-07-22T18:04:24;101544.13;;;18.81;77.14
24104;BME280;12278;53.058;9.028;2022-07-22T18:08:25;101549.38;;;18.90;78.14
24104;BME280;12278;53.058;9.028;2022-07-22T18:12:26;101543.22;;;18.82;78.08
24104;BME280;12278;53.058;9.028;2022-07-22T18:16:28;101536.13;;;18.77;79.17
24104;BME280;12278;53.058;9.028;2022-07-22T18:20:31;101531.59;;;18.77;78.87
24104;BME280;12278;53.058;9.028;2022-07-22T18:24:32;101528.06;;;18.72;80.00
24104;BME280;12278;53.058;9.028;2022-07-22T18:28:33;101539.03;;;18.63;79.21
24104;BME280;12278;53.058;9.028;2022-07-22T18:32:34;101539.91;;;18.62;80.23
24104;BME280;12278;53.058;9.028;2022-07-22T18:36:35;101550.66;;;18.66;79.57
24104;BME280;12278;53.058;9.028;2022-07-22T18:40:37;101544.50;;;18.55;79.79
24104;BME280;12278;53.058;9.028;2022-07-22T18:44:38;101542.72;;;18.53;79.81
24104;BME280;12278;53.058;9.028;2022-07-22T18:48:38;101537.34;;;18.51;80.32
24104;BME280;12278;53.058;9.028;2022-07-22T18:52:39;101535.72;;;18.39;79.50
24104;BME280;12278;53.058;9.028;2022-07-22T18:56:40;101533.97;;;18.35;80.38
24104;BME280;12278;53.058;9.028;2022-07-22T19:00:43;101537.69;;;18.28;81.38
24104;BME280;12278;53.058;9.028;2022-07-22T19:04:44;101537.69;;;18.30;82.03
24104;BME280;12278;53.058;9.028;2022-07-22T19:08:45;101544.81;;;18.34;81.41
24104;BME280;12278;53.058;9.028;2022-07-22T19:12:46;101536.03;;;18.18;82.03
24104;BME280;12278;53.058;9.028;2022-07-22T19:16:47;101540.47;;;18.24;81.84
24104;BME280;12278;53.058;9.028;2022-07-22T19:20:48;101534.25;;;18.17;82.40
24104;BME280;12278;53.058;9.028;2022-07-22T19:24:49;101538.81;;;18.12;83.10
24104;BME280;12278;53.058;9.028;2022-07-22T19:28:50;101534.22;;;18.19;82.60
24104;BME280;12278;53.058;9.028;2022-07-22T19:32:51;101547.81;;;18.11;83.62
24104;BME280;12278;53.058;9.028;2022-07-22T19:36:51;101550.63;;;18.02;82.72
24104;BME280;12278;53.058;9.028;2022-07-22T19:40:52;101557.88;;;17.98;82.53
24104;BME280;12278;53.058;9.028;2022-07-22T19:44:53;101556.06;;;17.99;83.35
24104;BME280;12278;53.058;9.028;2022-07-22T19:48:54;101550.78;;;17.91;83.72
24104;BME280;12278;53.058;9.028;2022-07-22T19:52:56;101549.00;;;17.90;82.71
24104;BME280;12278;53.058;9.028;2022-07-22T19:56:57;101558.06;;;17.83;82.72
24104;BME280;12278;53.058;9.028;2022-07-22T20:00:58;101561.66;;;17.82;82.90
24104;BME280;12278;53.058;9.028;2022-07-22T20:04:59;101566.94;;;17.94;82.56
24104;BME280;12278;53.058;9.028;2022-07-22T20:09:00;101565.22;;;17.89;82.98
24104;BME280;12278;53.058;9.028;2022-07-22T20:13:01;101553.69;;;17.73;84.45
24104;BME280;12278;53.058;9.028;2022-07-22T20:17:02;101555.53;;;17.68;84.02
24104;BME280;12278;53.058;9.028;2022-07-22T20:21:03;101548.44;;;17.58;85.00
24104;BME280;12278;53.058;9.028;2022-07-22T20:25:04;101544.03;;;17.47;84.82
24104;BME280;12278;53.058;9.028;2022-07-22T20:29:05;101541.38;;;17.43;85.91
24104;BME280;12278;53.058;9.028;2022-07-22T20:33:06;101531.75;;;17.19;85.96
24104;BME280;12278;53.058;9.028;2022-07-22T20:37:07;101542.47;;;17.25;86.44
24104;BME280;12278;53.058;9.028;2022-07-22T20:41:08;101535.50;;;17.01;87.29
24104;BME280;12278;53.058;9.028;2022-07-22T20:45:15;101529.19;;;17.05;87.35
24104;BME280;12278;53.058;9.028;2022-07-22T20:49:16;101528.25;;;17.08;87.77
24104;BME280;12278;53.058;9.028;2022-07-22T20:53:17;101533.72;;;16.97;87.88
24104;BME280;12278;53.058;9.028;2022-07-22T20:57:18;101529.38;;;16.84;87.85
24104;BME280;12278;53.058;9.028;2022-07-22T21:01:19;101527.53;;;16.89;88.93
24104;BME280;12278;53.058;9.028;2022-07-22T21:05:19;101524.88;;;16.80;89.02
24104;BME280;12278;53.058;9.028;2022-07-22T21:09:21;101532.16;;;16.72;88.86